createdAt,value
2022-10-06T00:00:22.433Z,8.44
2022-10-06T00:02:51.478Z,8.36
2022-10-06T00:05:20.567Z,8.23
2022-10-06T00:07:50.093Z,8.06
2022-10-06T00:10:19.565Z,8.05
2022-10-06T00:12:52.904Z,8.04
2022-10-06T00:15:26.212Z,8.11
2022-10-06T00:17:56.213Z,8.09
2022-10-06T00:20:26.093Z,8.04
2022-10-06T00:22:56.409Z,7.95
2022-10-06T00:25:28.251Z,7.91
2022-10-06T00:27:58.929Z,7.91
2022-10-06T00:30:31.265Z,7.82
2022-10-06T00:33:03.148Z,7.82
2022-10-06T00:35:35.669Z,7.84
2022-10-06T00:38:06.240Z,7.88
2022-10-06T00:40:35.441Z,7.95
2022-10-06T00:43:07.606Z,8.05
2022-10-06T00:45:43.812Z,8.13
2022-10-06T00:48:20.060Z,8.05
2022-10-06T00:50:49.761Z,8.06
2022-10-06T00:53:18.949Z,7.89
2022-10-06T00:55:48.388Z,7.81
2022-10-06T00:58:19.548Z,7.66
2022-10-06T01:00:50.613Z,7.53
2022-10-06T01:03:25.651Z,7.58
2022-10-06T01:05:55.895Z,7.64
2022-10-06T01:08:26.068Z,7.66
2022-10-06T01:10:55.448Z,7.62
2022-10-06T01:13:27.665Z,7.64
2022-10-06T01:16:03.625Z,7.48
2022-10-06T01:18:34.408Z,7.33
2022-10-06T01:21:11.982Z,7.24
2022-10-06T01:23:42.548Z,7.18
2022-10-06T01:26:14.601Z,7.09
2022-10-06T01:28:43.716Z,7.03
2022-10-06T01:31:12.999Z,7.18
2022-10-06T01:33:44.736Z,7.24
2022-10-06T01:36:14.652Z,7.38
2022-10-06T01:38:46.106Z,7.44
2022-10-06T01:41:15.412Z,7.63
2022-10-06T01:43:44.513Z,7.55
2022-10-06T01:46:13.643Z,7.61
2022-10-06T01:48:43.433Z,7.57
2022-10-06T01:51:17.101Z,7.60
2022-10-06T01:53:47.555Z,7.53
2022-10-06T01:56:16.630Z,7.66
2022-10-06T01:58:45.770Z,7.58
2022-10-06T02:01:14.999Z,7.31
2022-10-06T02:03:44.282Z,7.23
2022-10-06T02:06:13.316Z,7.17
2022-10-06T02:08:44.872Z,7.14
2022-10-06T02:11:15.769Z,7.07
2022-10-06T02:13:45.684Z,7.10
2022-10-06T02:16:14.938Z,7.13
2022-10-06T02:18:45.464Z,7.16
2022-10-06T02:21:19.690Z,7.15
2022-10-06T02:23:48.935Z,7.05
2022-10-06T02:26:20.074Z,7.01
2022-10-06T02:28:51.408Z,6.80
2022-10-06T02:31:24.095Z,6.80
2022-10-06T02:33:54.133Z,6.68
2022-10-06T02:36:25.226Z,6.63
2022-10-06T02:38:54.565Z,6.70
2022-10-06T02:41:25.456Z,6.67
2022-10-06T02:43:55.260Z,6.64
2022-10-06T02:46:25.192Z,6.62
2022-10-06T02:48:54.879Z,6.63
2022-10-06T02:51:25.179Z,6.70
2022-10-06T02:53:54.563Z,6.74
2022-10-06T02:56:27.165Z,6.61
2022-10-06T02:58:56.567Z,6.60
2022-10-06T03:01:32.408Z,6.67
2022-10-06T03:04:08.305Z,6.80
2022-10-06T03:06:37.404Z,6.76
2022-10-06T03:09:19.377Z,6.78
2022-10-06T03:11:49.912Z,6.83
2022-10-06T03:14:26.740Z,6.86
2022-10-06T03:16:57.352Z,6.96
2022-10-06T03:19:28.972Z,7.03
2022-10-06T03:21:58.019Z,7.10
2022-10-06T03:24:35.659Z,7.14
2022-10-06T03:27:06.282Z,7.07
2022-10-06T03:29:35.561Z,6.96
2022-10-06T03:32:06.103Z,6.88
2022-10-06T03:34:36.065Z,6.93
2022-10-06T03:37:07.783Z,6.91
2022-10-06T03:39:36.840Z,6.79
2022-10-06T03:42:07.390Z,6.78
2022-10-06T03:44:36.991Z,6.70
2022-10-06T03:47:07.131Z,6.64
2022-10-06T03:49:36.680Z,6.60
2022-10-06T03:52:05.705Z,6.61
2022-10-06T03:54:38.722Z,6.61
2022-10-06T03:57:09.429Z,6.60
2022-10-06T03:59:39.586Z,6.47
2022-10-06T04:02:09.140Z,6.62
2022-10-06T04:04:39.756Z,6.56
2022-10-06T04:07:13.128Z,6.51
2022-10-06T04:09:42.648Z,6.64
2022-10-06T04:12:14.935Z,6.38
2022-10-06T04:14:46.818Z,6.47
2022-10-06T04:17:16.049Z,6.39
2022-10-06T04:19:45.745Z,6.29
2022-10-06T04:22:15.646Z,6.14
2022-10-06T04:24:44.869Z,6.17
2022-10-06T04:27:30.741Z,6.16
2022-10-06T04:30:13.219Z,6.16
2022-10-06T04:32:43.154Z,6.19
2022-10-06T04:35:12.996Z,6.09
2022-10-06T04:37:42.139Z,6.00
2022-10-06T04:40:12.205Z,5.97
2022-10-06T04:42:43.100Z,5.87
2022-10-06T04:45:15.949Z,5.80
2022-10-06T04:47:45.967Z,5.86
2022-10-06T04:50:15.203Z,5.89
2022-10-06T04:53:04.139Z,5.81
2022-10-06T04:55:33.814Z,5.80
2022-10-06T04:58:04.381Z,5.73
2022-10-06T05:00:33.513Z,5.74
2022-10-06T05:03:03.218Z,5.92
2022-10-06T05:05:32.561Z,6.00
2022-10-06T05:08:01.688Z,6.00
2022-10-06T05:10:30.873Z,6.00
2022-10-06T05:13:00.094Z,6.01
2022-10-06T05:15:31.677Z,6.04
2022-10-06T05:18:00.809Z,6.03
2022-10-06T05:20:29.862Z,6.12
2022-10-06T05:22:58.958Z,6.28
2022-10-06T05:25:28.094Z,6.16
2022-10-06T05:27:57.408Z,6.18
2022-10-06T05:30:26.630Z,6.14
2022-10-06T05:32:57.105Z,6.20
2022-10-06T05:35:27.019Z,6.21
2022-10-06T05:37:56.104Z,6.13
2022-10-06T05:40:25.268Z,6.20
2022-10-06T05:42:56.809Z,6.24
2022-10-06T05:45:26.102Z,6.26
2022-10-06T05:47:57.079Z,6.24
2022-10-06T05:50:26.097Z,6.22
2022-10-06T05:52:56.532Z,6.34
2022-10-06T05:55:26.362Z,6.43
2022-10-06T05:57:56.265Z,6.43
2022-10-06T06:00:25.677Z,6.48
2022-10-06T06:02:56.162Z,6.55
2022-10-06T06:05:25.336Z,6.70
2022-10-06T06:07:54.379Z,6.80
2022-10-06T06:10:23.464Z,6.84
2022-10-06T06:12:52.497Z,6.98
2022-10-06T06:15:57.608Z,7.27
2022-10-06T06:18:28.664Z,7.41
2022-10-06T06:20:59.421Z,7.54
2022-10-06T06:23:33.564Z,7.52
2022-10-06T06:26:06.466Z,7.54
2022-10-06T06:28:40.362Z,7.77
2022-10-06T06:31:15.101Z,7.79
2022-10-06T06:33:53.097Z,7.83
2022-10-06T06:36:26.344Z,7.80
2022-10-06T06:38:57.823Z,7.77
2022-10-06T06:41:29.834Z,7.76
2022-10-06T06:44:08.317Z,8.00
2022-10-06T06:46:43.107Z,8.23
2022-10-06T06:49:19.074Z,8.33
2022-10-06T06:51:54.329Z,8.24
2022-10-06T06:54:27.726Z,8.28
2022-10-06T06:57:03.007Z,8.52
2022-10-06T06:59:34.113Z,8.70
2022-10-06T07:02:03.543Z,8.98
2022-10-06T07:04:37.422Z,9.34
2022-10-06T07:07:08.292Z,9.57
2022-10-06T07:09:39.298Z,9.89
2022-10-06T07:12:15.469Z,10.09
2022-10-06T07:15:09.850Z,10.24
2022-10-06T07:18:00.033Z,10.56
2022-10-06T07:20:49.426Z,10.78
2022-10-06T07:23:39.704Z,11.05
2022-10-06T07:26:13.719Z,11.35
2022-10-06T07:28:43.113Z,11.58
2022-10-06T07:31:13.727Z,11.56
2022-10-06T07:33:42.882Z,11.60
2022-10-06T07:36:15.473Z,11.70
2022-10-06T07:38:47.840Z,11.80
2022-10-06T07:41:19.720Z,11.94
2022-10-06T07:43:56.081Z,12.13
2022-10-06T07:46:26.745Z,12.29
2022-10-06T07:49:03.777Z,12.44
2022-10-06T07:51:34.801Z,12.58
2022-10-06T07:54:05.312Z,12.72
2022-10-06T07:56:52.917Z,12.81
2022-10-06T07:59:22.630Z,12.85
2022-10-06T08:01:52.933Z,12.96
2022-10-06T08:04:21.972Z,13.06
2022-10-06T08:06:52.381Z,13.11
2022-10-06T08:09:22.219Z,13.16
2022-10-06T08:11:51.306Z,13.17
2022-10-06T08:14:20.398Z,13.20
2022-10-06T08:16:49.454Z,13.21
2022-10-06T08:19:19.690Z,13.20
2022-10-06T08:21:48.729Z,13.21
2022-10-06T08:24:19.730Z,13.24
2022-10-06T08:26:48.737Z,13.32
2022-10-06T08:29:17.768Z,13.52
2022-10-06T08:31:46.844Z,13.65
2022-10-06T08:34:15.975Z,13.72
2022-10-06T08:37:02.115Z,13.85
2022-10-06T08:39:35.373Z,14.09
2022-10-06T08:42:04.655Z,14.37
2022-10-06T08:44:39.964Z,14.60
2022-10-06T08:47:18.604Z,14.87
2022-10-06T08:49:52.174Z,14.91
2022-10-06T08:52:46.914Z,14.97
2022-10-06T08:55:33.962Z,15.03
2022-10-06T08:58:22.839Z,15.26
2022-10-06T09:00:56.930Z,15.46
2022-10-06T09:03:31.205Z,15.61
2022-10-06T09:06:13.439Z,15.91
2022-10-06T09:08:53.194Z,16.16
2022-10-06T09:11:45.378Z,16.48
2022-10-06T09:14:21.084Z,16.78
2022-10-06T09:16:55.395Z,17.03
2022-10-06T09:19:35.249Z,17.23
2022-10-06T09:22:07.888Z,17.50
2022-10-06T09:24:46.987Z,17.83
2022-10-06T09:27:21.879Z,17.93
2022-10-06T09:29:52.285Z,18.04
2022-10-06T09:32:23.797Z,18.18
2022-10-06T09:34:55.450Z,18.28
2022-10-06T09:37:25.150Z,18.45
2022-10-06T09:39:55.690Z,18.63
2022-10-06T09:42:30.122Z,18.76
2022-10-06T09:45:02.562Z,18.87
2022-10-06T09:47:46.016Z,18.86
2022-10-06T09:50:23.003Z,19.10
2022-10-06T09:53:18.584Z,19.28
2022-10-06T09:55:54.934Z,19.44
2022-10-06T09:58:34.681Z,19.42
2022-10-06T10:01:07.917Z,19.59
2022-10-06T10:04:15.655Z,19.78
2022-10-06T10:06:41.813Z,19.98
2022-10-06T10:09:27.283Z,20.06
2022-10-06T10:12:28.307Z,20.15
2022-10-06T10:15:04.129Z,20.12
2022-10-06T10:17:49.368Z,19.99
2022-10-06T10:20:34.056Z,19.92
2022-10-06T10:23:22.863Z,20.12
2022-10-06T10:26:27.444Z,20.42
2022-10-06T10:29:17.050Z,20.67
2022-10-06T10:32:12.236Z,20.82
2022-10-06T10:35:11.741Z,21.00
2022-10-06T10:37:46.753Z,21.16
2022-10-06T10:40:31.331Z,21.27
2022-10-06T10:43:10.662Z,21.39
2022-10-06T10:45:47.269Z,21.50
2022-10-06T10:48:24.389Z,21.61
2022-10-06T10:51:02.933Z,21.49
2022-10-06T10:53:42.863Z,21.28
2022-10-06T10:56:16.219Z,21.15
2022-10-06T10:58:48.861Z,21.24
2022-10-06T11:01:31.127Z,21.30
2022-10-06T11:04:02.570Z,21.48
2022-10-06T11:06:55.432Z,21.50
2022-10-06T11:09:32.317Z,21.57
2022-10-06T11:12:18.597Z,21.56
2022-10-06T11:14:57.406Z,21.66
2022-10-06T11:17:45.292Z,21.76
2022-10-06T11:20:40.285Z,21.98
2022-10-06T11:23:33.750Z,22.16
2022-10-06T11:26:15.172Z,22.29
2022-10-06T11:28:51.826Z,22.03
2022-10-06T11:31:30.991Z,22.08
2022-10-06T11:34:03.285Z,22.17
2022-10-06T11:36:50.215Z,22.38
2022-10-06T11:39:33.278Z,22.63
2022-10-06T11:42:15.435Z,22.78
2022-10-06T11:44:51.806Z,23.09
2022-10-06T11:47:35.006Z,23.14
2022-10-06T11:50:42.773Z,22.93
2022-10-06T11:53:28.911Z,22.92
2022-10-06T11:56:47.069Z,23.03
2022-10-06T11:59:34.201Z,23.55
2022-10-06T12:02:42.625Z,23.64
2022-10-06T12:08:37.000Z,23.95
2022-10-06T12:11:49.418Z,24.07
2022-10-06T12:17:37.390Z,24.95
2022-10-06T12:20:20.227Z,24.91
2022-10-06T12:22:56.828Z,25.12
2022-10-06T12:25:41.048Z,25.55
2022-10-06T12:28:37.600Z,25.28
2022-10-06T12:31:39.868Z,25.28
2022-10-06T12:34:58.148Z,25.75
2022-10-06T12:37:42.598Z,26.35
2022-10-06T12:40:57.820Z,27.10
2022-10-06T12:44:03.917Z,27.47
2022-10-06T12:46:51.069Z,27.75
2022-10-06T12:49:44.292Z,27.78
2022-10-06T12:52:44.596Z,28.12
2022-10-06T12:55:43.586Z,27.97
2022-10-06T12:58:29.893Z,28.06
2022-10-06T13:01:02.459Z,27.47
2022-10-06T13:03:32.291Z,26.79
2022-10-06T13:06:04.872Z,26.21
2022-10-06T13:08:36.708Z,26.06
2022-10-06T13:11:21.885Z,26.07
2022-10-06T13:13:54.384Z,26.17
2022-10-06T13:16:26.381Z,26.56
2022-10-06T13:18:58.921Z,26.85
2022-10-06T13:21:30.124Z,27.27
2022-10-06T13:23:59.378Z,27.71
2022-10-06T13:26:32.737Z,27.89
2022-10-06T13:29:03.168Z,27.91
2022-10-06T13:31:35.228Z,28.02
2022-10-06T13:34:07.981Z,28.04
2022-10-06T13:36:39.981Z,28.69
2022-10-06T13:39:15.359Z,29.11
2022-10-06T13:41:47.620Z,29.90
2022-10-06T13:44:36.097Z,31.69
2022-10-06T13:47:15.373Z,32.47
2022-10-06T13:49:53.199Z,31.60
2022-10-06T13:52:31.511Z,30.84
2022-10-06T13:55:02.116Z,30.81
2022-10-06T13:57:43.461Z,31.07
2022-10-06T14:00:25.470Z,31.71
2022-10-06T14:02:58.903Z,32.32
2022-10-06T14:05:32.823Z,33.73
2022-10-06T14:08:04.093Z,36.27
2022-10-06T14:10:53.429Z,38.49
2022-10-06T14:13:26.550Z,40.15
2022-10-06T14:16:01.686Z,40.39
2022-10-06T14:18:38.288Z,39.05
2022-10-06T14:21:28.874Z,39.25
2022-10-06T14:23:58.330Z,39.49
2022-10-06T14:26:30.240Z,39.78
2022-10-06T14:29:02.405Z,40.36
2022-10-06T14:31:34.197Z,41.06
2022-10-06T14:34:04.685Z,40.57
2022-10-06T14:36:36.901Z,41.23
2022-10-06T14:39:07.811Z,41.50
2022-10-06T14:41:36.908Z,41.74
2022-10-06T14:44:09.663Z,42.23
2022-10-06T14:46:42.334Z,42.59
2022-10-06T14:49:14.240Z,42.79
2022-10-06T14:51:47.470Z,42.82
2022-10-06T14:54:16.806Z,42.70
2022-10-06T14:56:45.852Z,42.74
2022-10-06T14:59:18.221Z,42.78
2022-10-06T15:01:49.964Z,42.58
2022-10-06T15:04:20.945Z,41.83
2022-10-06T15:07:07.593Z,41.07
2022-10-06T15:09:36.865Z,40.62
2022-10-06T15:12:06.293Z,40.62
2022-10-06T15:14:40.069Z,40.31
2022-10-06T15:17:10.788Z,39.85
2022-10-06T15:19:40.401Z,38.51
2022-10-06T15:22:10.469Z,36.55
2022-10-06T15:24:39.537Z,34.09
2022-10-06T15:27:26.114Z,32.76
2022-10-06T15:29:57.468Z,31.21
2022-10-06T15:32:28.098Z,29.99
2022-10-06T15:35:00.277Z,28.56
2022-10-06T15:37:29.482Z,27.26
2022-10-06T15:39:58.825Z,26.32
2022-10-06T15:42:27.900Z,25.65
2022-10-06T15:44:57.425Z,25.11
2022-10-06T15:47:29.351Z,24.68
2022-10-06T15:49:58.748Z,24.27
2022-10-06T15:52:33.946Z,23.90
2022-10-06T15:55:03.602Z,23.42
2022-10-06T15:57:32.651Z,23.02
2022-10-06T16:00:01.639Z,22.65
2022-10-06T16:02:35.617Z,22.41
2022-10-06T16:05:21.844Z,22.09
2022-10-06T16:07:51.084Z,21.78
2022-10-06T16:10:20.249Z,21.47
2022-10-06T16:12:49.227Z,21.19
2022-10-06T16:15:18.307Z,20.92
2022-10-06T16:17:48.916Z,20.58
2022-10-06T16:20:18.304Z,20.29
2022-10-06T16:22:47.307Z,19.95
2022-10-06T16:25:16.629Z,19.67
2022-10-06T16:27:45.883Z,19.39
2022-10-06T16:30:15.433Z,18.82
2022-10-06T16:32:44.624Z,18.43
2022-10-06T16:35:20.610Z,18.03
2022-10-06T16:37:50.113Z,18.00
2022-10-06T16:40:19.232Z,17.98
2022-10-06T16:42:48.435Z,17.85
2022-10-06T16:45:17.537Z,17.77
2022-10-06T16:47:46.672Z,17.64
2022-10-06T16:50:17.380Z,17.31
2022-10-06T16:52:48.592Z,17.02
2022-10-06T16:55:17.764Z,16.78
2022-10-06T16:57:46.895Z,16.75
2022-10-06T17:00:18.414Z,16.67
2022-10-06T17:02:47.400Z,16.59
2022-10-06T17:05:18.197Z,16.49
2022-10-06T17:07:47.239Z,16.34
2022-10-06T17:10:20.445Z,16.29
2022-10-06T17:12:49.850Z,16.00
2022-10-06T17:15:18.888Z,15.97
2022-10-06T17:17:48.057Z,15.90
2022-10-06T17:20:18.591Z,15.93
2022-10-06T17:22:48.638Z,15.78
2022-10-06T17:25:22.355Z,15.77
2022-10-06T17:27:51.539Z,15.67
2022-10-06T17:30:20.638Z,15.60
2022-10-06T17:32:49.869Z,15.51
2022-10-06T17:35:23.528Z,15.45
2022-10-06T17:37:52.544Z,15.48
2022-10-06T17:40:26.027Z,15.35
2022-10-06T17:42:55.698Z,15.32
2022-10-06T17:45:25.082Z,15.12
2022-10-06T17:47:55.358Z,14.95
2022-10-06T17:50:26.051Z,14.70
2022-10-06T17:52:55.100Z,14.59
2022-10-06T17:55:24.315Z,14.63
2022-10-06T17:57:53.559Z,14.58
2022-10-06T18:00:22.661Z,14.66
2022-10-06T18:02:54.868Z,14.87
2022-10-06T18:05:28.468Z,14.95
2022-10-06T18:08:01.892Z,14.85
2022-10-06T18:10:48.316Z,14.78
2022-10-06T18:13:17.376Z,14.29
2022-10-06T18:15:46.840Z,14.17
2022-10-06T18:18:16.181Z,14.13
2022-10-06T18:20:46.943Z,14.06
2022-10-06T18:23:16.705Z,14.10
2022-10-06T18:25:46.116Z,13.99
2022-10-06T18:28:15.370Z,13.95
2022-10-06T18:30:51.382Z,13.87
2022-10-06T18:36:15.029Z,13.70
2022-10-06T18:38:47.197Z,13.73
2022-10-06T18:41:18.977Z,13.80
2022-10-06T18:43:48.122Z,13.81
2022-10-06T18:46:36.127Z,13.89
2022-10-06T18:49:13.260Z,14.13
2022-10-06T18:51:46.186Z,13.98
2022-10-06T18:54:18.916Z,13.55
2022-10-06T18:56:50.090Z,13.40
2022-10-06T18:59:22.974Z,13.55
2022-10-06T19:01:52.683Z,13.66
2022-10-06T19:04:23.716Z,13.54
2022-10-06T19:06:56.656Z,13.28
2022-10-06T19:09:27.085Z,13.31
2022-10-06T19:11:58.954Z,13.31
2022-10-06T19:14:32.180Z,13.36
2022-10-06T19:17:04.100Z,13.43
2022-10-06T19:19:35.132Z,13.30
2022-10-06T19:22:07.554Z,13.32
2022-10-06T19:24:39.102Z,13.17
2022-10-06T19:27:12.183Z,13.17
2022-10-06T19:29:45.792Z,13.15
2022-10-06T19:32:17.986Z,13.07
2022-10-06T19:34:48.540Z,12.99
2022-10-06T19:37:18.984Z,12.97
2022-10-06T19:39:50.275Z,12.82
2022-10-06T19:42:50.083Z,12.70
2022-10-06T19:45:21.082Z,12.64
2022-10-06T19:47:51.419Z,12.54
2022-10-06T19:50:24.148Z,12.46
2022-10-06T19:52:54.713Z,12.37
2022-10-06T19:55:24.940Z,12.61
2022-10-06T19:57:54.039Z,12.52
2022-10-06T20:00:23.239Z,12.52
2022-10-06T20:02:52.258Z,12.42
2022-10-06T20:05:21.967Z,12.30
2022-10-06T20:07:51.046Z,12.19
2022-10-06T20:10:21.671Z,12.13
2022-10-06T20:12:51.027Z,12.13
2022-10-06T20:15:20.839Z,12.16
2022-10-06T20:17:50.048Z,12.17
2022-10-06T20:20:20.570Z,12.14
2022-10-06T20:22:49.830Z,12.05
2022-10-06T20:25:19.055Z,11.92
2022-10-06T20:27:50.353Z,11.88
2022-10-06T20:30:19.688Z,12.08
2022-10-06T20:32:48.826Z,12.07
2022-10-06T20:35:19.797Z,11.97
2022-10-06T20:37:48.897Z,12.03
2022-10-06T20:40:35.350Z,11.89
2022-10-06T20:43:05.896Z,11.71
2022-10-06T20:45:34.972Z,11.69
2022-10-06T20:48:06.272Z,11.60
2022-10-06T20:50:35.349Z,11.69
2022-10-06T20:53:04.475Z,11.83
2022-10-06T20:55:33.531Z,11.95
2022-10-06T20:58:02.568Z,11.87
2022-10-06T21:00:33.039Z,11.84
2022-10-06T21:03:03.106Z,11.82
2022-10-06T21:05:33.139Z,11.83
2022-10-06T21:08:02.233Z,11.76
2022-10-06T21:10:32.049Z,11.43
2022-10-06T21:13:01.315Z,11.31
2022-10-06T21:15:36.556Z,11.35
2022-10-06T21:18:07.079Z,11.32
2022-10-06T21:20:36.582Z,11.52
2022-10-06T21:23:10.718Z,11.30
2022-10-06T21:25:41.049Z,11.10
2022-10-06T21:28:10.155Z,11.07
2022-10-06T21:30:42.358Z,11.14
2022-10-06T21:33:14.637Z,11.08
2022-10-06T21:35:43.670Z,11.15
2022-10-06T21:38:13.234Z,11.17
2022-10-06T21:40:42.340Z,11.12
2022-10-06T21:43:11.327Z,11.18
2022-10-06T21:45:42.243Z,11.30
2022-10-06T21:48:11.252Z,11.37
2022-10-06T21:50:40.395Z,11.44
2022-10-06T21:53:09.559Z,11.39
2022-10-06T21:55:38.611Z,11.43
2022-10-06T21:58:07.596Z,11.40
2022-10-06T22:00:36.751Z,11.30
2022-10-06T22:03:09.082Z,11.08
2022-10-06T22:05:39.831Z,10.91
2022-10-06T22:08:08.859Z,10.83
2022-10-06T22:10:37.941Z,10.83
2022-10-06T22:13:07.169Z,10.88
2022-10-06T22:15:37.458Z,10.99
2022-10-06T22:18:07.892Z,11.11
2022-10-06T22:20:36.985Z,11.03
2022-10-06T22:23:05.989Z,10.88
2022-10-06T22:25:35.015Z,10.73
2022-10-06T22:28:08.729Z,10.50
2022-10-06T22:30:37.827Z,10.41
2022-10-06T22:33:08.283Z,10.28
2022-10-06T22:35:37.491Z,10.22
2022-10-06T22:38:06.707Z,10.16
2022-10-06T22:40:35.790Z,10.21
2022-10-06T22:43:04.926Z,10.19
2022-10-06T22:45:34.041Z,10.29
2022-10-06T22:48:03.207Z,10.31
2022-10-06T22:50:33.763Z,10.30
2022-10-06T22:53:02.965Z,10.25
2022-10-06T22:55:32.097Z,10.21
2022-10-06T22:58:01.063Z,10.42
2022-10-06T23:00:30.162Z,10.44
2022-10-06T23:02:59.346Z,10.44
2022-10-06T23:05:28.861Z,10.35
2022-10-06T23:07:59.431Z,10.15
2022-10-06T23:10:29.728Z,10.12
2022-10-06T23:12:59.997Z,10.03
2022-10-06T23:15:29.759Z,9.95
2022-10-06T23:17:58.726Z,9.85
2022-10-06T23:20:27.766Z,9.73
2022-10-06T23:22:58.158Z,9.60
2022-10-06T23:25:27.514Z,9.65
2022-10-06T23:27:56.698Z,9.67
2022-10-06T23:30:25.755Z,9.69
2022-10-06T23:32:54.768Z,9.80
2022-10-06T23:35:23.949Z,9.92
2022-10-06T23:37:53.039Z,9.84
2022-10-06T23:40:23.499Z,9.71
2022-10-06T23:42:52.515Z,9.65
2022-10-06T23:45:21.548Z,9.68
2022-10-06T23:47:50.510Z,9.78
2022-10-06T23:50:19.686Z,9.91
2022-10-06T23:52:48.720Z,9.76
2022-10-06T23:55:17.674Z,9.77
2022-10-06T23:57:48.035Z,9.82
